Time;durP1;ratioP1;P1;durP2;ratioP2;P2;SDS_P1;SDS_P2;PMS_P1;PMS_P2;Temp;Humidity;BMP_temperature;BMP_pressure;BME280_temperature;BME280_humidity;BME280_pressure;Samples;Min_cycle;Max_cycle;Signal;HPM_P1;HPM_P2
2022/01/09 00:01:10;;;;;;;4.63;3.03;;;1.80;70.70;;;;;;6245188;22;20522;-83
2022/01/09 00:03:37;;;;;;;2.93;2.30;;;2.00;74.90;;;;;;6245180;22;20193;-83
2022/01/09 00:06:04;;;;;;;2.87;1.93;;;2.10;70.60;;;;;;6244975;22;20686;-83
2022/01/09 00:08:33;;;;;;;2.77;2.27;;;2.10;68.40;;;;;;6245194;22;20169;-83
2022/01/09 00:11:00;;;;;;;3.77;2.63;;;1.90;67.60;;;;;;6245984;22;20275;-82
2022/01/09 00:13:27;;;;;;;3.60;2.57;;;1.80;70.60;;;;;;6247519;22;20910;-82
2022/01/09 00:15:54;;;;;;;3.30;2.20;;;1.90;70.80;;;;;;6246732;22;20229;-81
2022/01/09 00:18:21;;;;;;;2.93;2.20;;;1.90;67.60;;;;;;6248710;22;20164;-84
2022/01/09 00:20:48;;;;;;;2.50;2.10;;;1.80;69.30;;;;;;6245469;23;20535;-82
2022/01/09 00:23:15;;;;;;;4.77;2.10;;;1.90;79.40;;;;;;6248255;22;20172;-81
2022/01/09 00:25:44;;;;;;;2.47;2.00;;;2.00;72.10;;;;;;6247698;22;20268;-82
2022/01/09 00:28:11;;;;;;;2.23;2.00;;;2.00;74.90;;;;;;6248292;22;20247;-82
2022/01/09 00:30:38;;;;;;;2.43;2.23;;;2.30;75.60;;;;;;6247925;22;20203;-83
2022/01/09 00:33:06;;;;;;;2.47;1.90;;;2.10;70.90;;;;;;6248985;22;20183;-82
2022/01/09 00:35:33;;;;;;;4.37;2.20;;;2.50;73.00;;;;;;6248535;22;20250;-84
2022/01/09 00:38:00;;;;;;;2.67;2.10;;;2.40;68.90;;;;;;6250179;22;20176;-82
2022/01/09 00:40:27;;;;;;;3.70;2.30;;;2.10;69.80;;;;;;6249738;22;20197;-82
2022/01/09 00:42:56;;;;;;;5.03;2.40;;;2.20;76.00;;;;;;6250339;22;20639;-83
2022/01/09 00:45:22;;;;;;;3.27;2.27;;;2.20;77.50;;;;;;6248437;22;20284;-82
2022/01/09 00:47:49;;;;;;;6.17;2.07;;;2.10;73.30;;;;;;6251265;22;20200;-82
2022/01/09 00:50:16;;;;;;;3.20;2.23;;;2.10;73.20;;;;;;6250064;22;20503;-82
2022/01/09 00:52:43;;;;;;;3.10;2.20;;;2.00;73.10;;;;;;6250902;22;20189;-82
2022/01/09 00:55:12;;;;;;;3.10;2.37;;;2.20;75.00;;;;;;6249404;22;20339;-83
2022/01/09 00:57:39;;;;;;;3.13;2.00;;;2.30;74.10;;;;;;6250303;22;20201;-82
2022/01/09 01:00:09;;;;;;;2.90;2.20;;;2.40;76.40;;;;;;6249797;22;20197;-84
2022/01/09 01:02:36;;;;;;;3.60;1.97;;;2.60;67.20;;;;;;6251539;22;20166;-83
2022/01/09 01:05:06;;;;;;;2.93;1.90;;;2.50;72.40;;;;;;6250024;22;20264;-83
2022/01/09 01:07:33;;;;;;;2.00;1.70;;;2.40;67.10;;;;;;6250651;22;20204;-82
2022/01/09 01:10:01;;;;;;;2.67;1.90;;;2.40;67.20;;;;;;6249838;22;20197;-83
2022/01/09 01:12:30;;;;;;;3.47;2.33;;;2.00;69.60;;;;;;6251036;22;20180;-82
2022/01/09 01:14:57;;;;;;;2.90;2.00;;;2.10;75.30;;;;;;6252655;22;20597;-83
2022/01/09 01:17:26;;;;;;;2.73;2.00;;;2.20;71.60;;;;;;6252145;22;20491;-83
2022/01/09 01:19:54;;;;;;;2.67;1.87;;;2.10;72.30;;;;;;6256525;22;20208;-82
2022/01/09 01:22:22;;;;;;;3.93;2.20;;;2.00;74.00;;;;;;6253295;22;20173;-82
2022/01/09 01:24:50;;;;;;;2.33;1.90;;;2.00;72.00;;;;;;6251674;22;20197;-82
2022/01/09 01:27:18;;;;;;;2.90;2.20;;;1.90;73.30;;;;;;6251298;22;20196;-84
2022/01/09 01:29:45;;;;;;;4.10;2.03;;;1.90;73.50;;;;;;6251423;22;20751;-82
2022/01/09 01:32:12;;;;;;;2.80;2.07;;;1.80;73.30;;;;;;6252930;22;20196;-83
2022/01/09 01:34:40;;;;;;;2.97;2.00;;;1.80;72.90;;;;;;6251258;22;20272;-82
2022/01/09 01:37:07;;;;;;;3.47;2.13;;;2.00;74.10;;;;;;6252984;22;20193;-83
2022/01/09 01:39:34;;;;;;;4.13;2.20;;;2.10;73.70;;;;;;6252390;22;20272;-83
2022/01/09 01:42:01;;;;;;;2.53;2.07;;;2.00;74.20;;;;;;6251894;22;20522;-82
2022/01/09 01:44:39;;;;;;;2.87;2.10;;;2.10;78.70;;;;;;6250684;22;20199;-83
2022/01/09 01:47:06;;;;;;;2.47;2.20;;;2.30;74.40;;;;;;6252443;22;20163;-82
2022/01/09 01:49:33;;;;;;;4.17;2.10;;;2.20;75.10;;;;;;6252452;22;20245;-84
2022/01/09 01:52:02;;;;;;;3.27;2.37;;;2.20;76.70;;;;;;6251973;22;20617;-82
2022/01/09 01:54:29;;;;;;;3.43;2.00;;;2.20;79.90;;;;;;6252466;22;20268;-82
2022/01/09 01:56:56;;;;;;;2.60;2.00;;;2.60;81.20;;;;;;6252170;22;20220;-82
2022/01/09 01:59:23;;;;;;;3.33;2.50;;;2.80;79.70;;;;;;6251857;22;20619;-83
2022/01/09 02:01:51;;;;;;;3.47;2.23;;;2.80;79.10;;;;;;6251845;22;20222;-83
2022/01/09 02:04:18;;;;;;;3.37;2.10;;;2.80;81.30;;;;;;6251517;22;20175;-82
2022/01/09 02:06:45;;;;;;;3.60;2.17;;;2.80;80.20;;;;;;6251492;22;20252;-83
2022/01/09 02:09:13;;;;;;;1.97;1.80;;;2.80;82.10;;;;;;6251260;22;20171;-83
2022/01/09 02:11:40;;;;;;;2.53;1.90;;;2.70;81.20;;;;;;6250953;22;20169;-82
2022/01/09 02:14:08;;;;;;;2.60;2.20;;;2.50;82.10;;;;;;6250183;22;20169;-83
2022/01/09 02:16:39;;;;;;;4.17;2.20;;;2.50;84.00;;;;;;6247186;22;20247;-83
2022/01/09 02:19:08;;;;;;;2.63;2.10;;;2.40;85.00;;;;;;6250065;22;20252;-83
2022/01/09 02:21:37;;;;;;;2.90;2.03;;;2.50;87.40;;;;;;6250582;22;20185;-82
2022/01/09 02:24:04;;;;;;;2.37;2.00;;;2.60;87.90;;;;;;6252141;22;20173;-85
2022/01/09 02:26:31;;;;;;;2.67;1.90;;;2.60;86.30;;;;;;6250633;22;20200;-83
2022/01/09 02:28:58;;;;;;;2.47;2.17;;;2.40;87.40;;;;;;6251609;22;20488;-82
2022/01/09 02:31:25;;;;;;;6.30;4.17;;;2.90;90.20;;;;;;6249370;22;20276;-82
2022/01/09 02:33:52;;;;;;;2.67;2.20;;;3.00;87.70;;;;;;6251778;22;20225;-82
2022/01/09 02:36:19;;;;;;;7.00;5.00;;;3.00;86.00;;;;;;6250597;22;20284;-83
2022/01/09 02:38:48;;;;;;;14.93;10.53;;;3.00;88.70;;;;;;6252423;22;20256;-82
2022/01/09 02:41:15;;;;;;;4.30;2.70;;;3.20;90.30;;;;;;6251443;22;20197;-82
2022/01/09 02:43:42;;;;;;;3.27;2.67;;;3.20;88.70;;;;;;6254690;22;20522;-82
2022/01/09 02:46:15;;;;;;;4.03;3.03;;;2.90;89.00;;;;;;6253666;22;20217;-82
2022/01/09 02:48:43;;;;;;;6.07;3.80;;;2.80;90.30;;;;;;6255842;22;20157;-82
2022/01/09 02:51:14;;;;;;;1.93;1.70;;;2.70;91.50;;;;;;6255211;22;20545;-82
2022/01/09 02:53:45;;;;;;;2.83;1.70;;;2.70;91.40;;;;;;6247547;22;20154;-82
2022/01/09 02:56:14;;;;;;;3.23;2.73;;;2.60;91.90;;;;;;6248355;22;20640;-82
2022/01/09 02:58:42;;;;;;;2.37;1.97;;;2.60;93.80;;;;;;6247427;22;20169;-83
2022/01/09 03:01:11;;;;;;;2.97;2.40;;;2.70;94.60;;;;;;6248039;22;20205;-82
2022/01/09 03:03:39;;;;;;;1.50;1.40;;;2.70;94.60;;;;;;6248058;22;20169;-84
2022/01/09 03:06:07;;;;;;;3.03;1.10;;;2.50;94.60;;;;;;6247408;22;20193;-82
2022/01/09 03:08:35;;;;;;;1.00;1.00;;;2.50;95.10;;;;;;6247782;22;20177;-82
2022/01/09 03:11:02;;;;;;;1.63;1.33;;;2.30;95.50;;;;;;6247456;22;20276;-83
2022/01/09 03:13:32;;;;;;;0.93;0.90;;;2.30;96.30;;;;;;6247302;22;20173;-82
2022/01/09 03:15:59;;;;;;;1.23;1.17;;;2.30;96.60;;;;;;6247557;22;20802;-82
2022/01/09 03:18:26;;;;;;;4.00;3.50;;;2.40;97.10;;;;;;6247451;22;20232;-83
2022/01/09 03:20:53;;;;;;;1.90;1.50;;;2.70;97.60;;;;;;6249075;22;20276;-82
2022/01/09 03:23:19;;;;;;;1.60;1.50;;;2.80;96.40;;;;;;6248394;22;20180;-82
2022/01/09 03:25:47;;;;;;;2.87;2.40;;;2.90;96.40;;;;;;6248081;22;20231;-82
2022/01/09 03:28:14;;;;;;;4.13;2.50;;;3.00;96.80;;;;;;6248708;22;20256;-82
2022/01/09 03:30:42;;;;;;;0.90;0.90;;;3.40;96.30;;;;;;6248647;22;20272;-82
2022/01/09 03:33:09;;;;;;;2.20;1.83;;;3.20;94.70;;;;;;6250588;22;20248;-82
2022/01/09 03:35:36;;;;;;;1.30;1.20;;;3.10;95.70;;;;;;6248273;22;20272;-83
2022/01/09 03:38:05;;;;;;;6.20;3.20;;;2.90;95.30;;;;;;6247808;22;20193;-83
2022/01/09 03:40:32;;;;;;;20.00;13.43;;;2.90;96.00;;;;;;6247168;22;20193;-83
2022/01/09 03:42:59;;;;;;;2.80;1.60;;;3.30;96.20;;;;;;6248569;22;20173;-83
2022/01/09 03:45:27;;;;;;;9.80;6.37;;;3.10;95.10;;;;;;6248523;22;20197;-83
2022/01/09 03:47:56;;;;;;;5.00;3.37;;;2.90;95.60;;;;;;6249006;22;20180;-82
2022/01/09 03:50:23;;;;;;;8.17;1.20;;;2.80;95.80;;;;;;6247772;22;20291;-82
2022/01/09 03:52:51;;;;;;;1.10;1.03;;;2.60;95.80;;;;;;6249330;22;20384;-82
2022/01/09 03:55:21;;;;;;;12.17;8.57;;;2.50;96.20;;;;;;6248497;22;20197;-82
2022/01/09 03:57:48;;;;;;;14.30;8.37;;;2.70;97.70;;;;;;6249347;22;20209;-82
2022/01/09 04:00:18;;;;;;;1.83;1.43;;;3.10;97.10;;;;;;6248808;22;20248;-82
2022/01/09 04:02:48;;;;;;;1.33;1.03;;;3.10;95.40;;;;;;6249697;22;20244;-83
2022/01/09 04:05:17;;;;;;;3.53;2.77;;;2.90;95.70;;;;;;6249725;22;20216;-82
2022/01/09 04:07:44;;;;;;;5.43;4.17;;;2.80;96.30;;;;;;6250859;22;20252;-82
2022/01/09 04:10:11;;;;;;;1.13;1.00;;;2.90;96.70;;;;;;6250881;22;20572;-83
2022/01/09 04:12:47;;;;;;;3.47;2.60;;;2.70;96.00;;;;;;6252612;22;20179;-82
2022/01/09 04:15:16;;;;;;;2.33;1.20;;;2.70;96.80;;;;;;6251089;22;20231;-82
2022/01/09 04:17:51;;;;;;;1.23;1.13;;;2.80;96.70;;;;;;6252014;22;20219;-82
2022/01/09 04:20:23;;;;;;;1.40;1.30;;;2.50;96.50;;;;;;6251766;22;20204;-83
2022/01/09 04:22:51;;;;;;;1.10;1.00;;;2.50;97.20;;;;;;6251788;22;20189;-82
2022/01/09 04:25:18;;;;;;;1.07;1.00;;;2.50;96.80;;;;;;6250899;22;20505;-82
2022/01/09 04:27:45;;;;;;;2.10;1.07;;;2.30;96.90;;;;;;6251764;22;20181;-82
2022/01/09 04:30:13;;;;;;;0.93;0.83;;;2.30;97.10;;;;;;6250585;22;20223;-83
2022/01/09 04:32:40;;;;;;;1.07;0.97;;;2.30;97.10;;;;;;6252191;22;20203;-84
2022/01/09 04:35:08;;;;;;;5.87;3.10;;;2.30;97.20;;;;;;6250631;22;20281;-82
2022/01/09 04:37:37;;;;;;;3.73;2.20;;;2.60;97.90;;;;;;6253312;22;20276;-82
2022/01/09 04:40:07;;;;;;;2.73;2.10;;;2.80;97.10;;;;;;6251352;22;20197;-83
2022/01/09 04:42:40;;;;;;;1.73;0.80;;;3.20;96.50;;;;;;6252316;22;20167;-82
2022/01/09 04:45:09;;;;;;;0.90;0.90;;;3.30;94.70;;;;;;6251443;22;20211;-82
2022/01/09 04:47:36;;;;;;;2.10;1.07;;;3.00;94.60;;;;;;6251715;22;20228;-82
2022/01/09 04:50:03;;;;;;;1.37;1.10;;;2.80;94.70;;;;;;6250714;22;20473;-82
2022/01/09 04:52:34;;;;;;;0.80;0.80;;;2.60;95.30;;;;;;6250812;22;20280;-82
2022/01/09 04:55:02;;;;;;;0.87;0.87;;;2.50;95.60;;;;;;6250530;22;20201;-82
2022/01/09 04:57:29;;;;;;;0.80;0.80;;;2.30;95.90;;;;;;6251458;22;20215;-83
2022/01/09 04:59:56;;;;;;;0.93;0.87;;;2.20;96.10;;;;;;6250968;22;20662;-83
2022/01/09 05:02:23;;;;;;;1.53;1.43;;;2.20;96.30;;;;;;6251646;22;20176;-83
2022/01/09 05:04:50;;;;;;;1.90;1.40;;;2.30;97.00;;;;;;6250153;22;20249;-82
2022/01/09 05:07:17;;;;;;;0.97;0.90;;;2.60;96.70;;;;;;6252541;22;20463;-82
2022/01/09 05:09:44;;;;;;;0.70;0.70;;;2.80;95.50;;;;;;6251907;22;20209;-83
2022/01/09 05:12:13;;;;;;;1.30;1.20;;;2.80;94.60;;;;;;6252297;22;20252;-83
2022/01/09 05:14:39;;;;;;;0.90;0.90;;;2.80;95.00;;;;;;6251078;22;20244;-82
2022/01/09 05:17:06;;;;;;;1.90;0.80;;;2.90;94.60;;;;;;6252417;22;20220;-82
2022/01/09 05:19:35;;;;;;;0.90;0.90;;;3.00;94.60;;;;;;6252372;22;20220;-82
2022/01/09 05:22:03;;;;;;;0.70;0.53;;;3.00;94.60;;;;;;6253536;22;20184;-85
2022/01/09 05:24:30;;;;;;;0.60;0.60;;;3.10;95.00;;;;;;6251776;22;20204;-82
2022/01/09 05:26:57;;;;;;;0.80;0.80;;;3.30;94.70;;;;;;6249809;22;20169;-83
2022/01/09 05:29:26;;;;;;;0.90;0.90;;;3.40;94.70;;;;;;6246024;22;20169;-82
2022/01/09 05:31:53;;;;;;;1.73;0.60;;;3.50;95.00;;;;;;6249233;22;20173;-83
2022/01/09 05:34:20;;;;;;;1.20;0.70;;;3.70;94.80;;;;;;6246273;22;20169;-82
2022/01/09 05:36:47;;;;;;;0.70;0.70;;;3.70;95.30;;;;;;6247499;22;20180;-83
2022/01/09 05:39:14;;;;;;;0.83;0.83;;;3.80;95.10;;;;;;6247354;22;20300;-83
2022/01/09 05:41:43;;;;;;;0.60;0.60;;;3.80;94.80;;;;;;6249798;22;20201;-82
2022/01/09 05:44:10;;;;;;;0.60;0.60;;;3.90;94.80;;;;;;6248995;22;20221;-83
2022/01/09 05:46:39;;;;;;;0.60;0.50;;;3.90;94.80;;;;;;6250336;22;20173;-83
2022/01/09 05:49:06;;;;;;;0.70;0.70;;;4.00;94.80;;;;;;6252271;22;20652;-82
2022/01/09 05:51:33;;;;;;;1.80;0.60;;;4.00;94.50;;;;;;6252965;22;20193;-83
2022/01/09 05:54:00;;;;;;;0.50;0.43;;;4.10;94.20;;;;;;6253121;22;20178;-82
2022/01/09 05:56:27;;;;;;;0.93;0.80;;;4.10;93.80;;;;;;6253898;22;20272;-82
2022/01/09 05:58:54;;;;;;;0.50;0.50;;;4.20;93.70;;;;;;6253114;22;20197;-83
2022/01/09 06:01:21;;;;;;;0.70;0.70;;;4.20;93.70;;;;;;6251181;22;20221;-83
2022/01/09 06:03:49;;;;;;;0.80;0.80;;;4.30;93.20;;;;;;6249932;22;20173;-82
2022/01/09 06:06:16;;;;;;;0.63;0.60;;;4.30;93.00;;;;;;6250865;22;20205;-82
2022/01/09 06:08:43;;;;;;;0.67;0.67;;;4.30;92.90;;;;;;6251058;22;20172;-83
2022/01/09 06:11:10;;;;;;;0.70;0.57;;;4.30;92.50;;;;;;6252454;22;20315;-83
2022/01/09 06:13:37;;;;;;;0.70;0.70;;;4.40;92.00;;;;;;6253989;22;20253;-82
2022/01/09 06:16:05;;;;;;;0.50;0.50;;;4.40;91.80;;;;;;6253461;22;20217;-82
2022/01/09 06:18:32;;;;;;;0.70;0.70;;;4.40;91.90;;;;;;6253253;22;20217;-83
2022/01/09 06:21:01;;;;;;;0.50;0.50;;;4.40;92.30;;;;;;6253058;22;20224;-84
2022/01/09 06:23:28;;;;;;;0.50;0.50;;;4.50;92.00;;;;;;6253842;22;20169;-83
2022/01/09 06:25:55;;;;;;;0.50;0.50;;;4.50;92.10;;;;;;6252948;22;20197;-82
2022/01/09 06:28:22;;;;;;;0.77;0.77;;;4.40;92.30;;;;;;6253580;22;20180;-82
2022/01/09 06:30:51;;;;;;;1.27;0.77;;;4.40;93.20;;;;;;6253265;22;20273;-82
2022/01/09 06:33:18;;;;;;;0.67;0.67;;;4.30;94.20;;;;;;6255250;22;20245;-82
2022/01/09 06:35:45;;;;;;;0.77;0.53;;;4.10;94.90;;;;;;6253917;22;20264;-82
2022/01/09 06:38:14;;;;;;;0.67;0.67;;;4.00;95.30;;;;;;6255213;22;20200;-83
2022/01/09 06:40:41;;;;;;;0.70;0.70;;;3.80;96.20;;;;;;6254026;22;20253;-82
2022/01/09 06:43:09;;;;;;;0.53;0.53;;;3.80;96.40;;;;;;6255294;22;20612;-83
2022/01/09 06:45:35;;;;;;;0.57;0.57;;;3.70;96.50;;;;;;6253810;22;20193;-82
2022/01/09 06:48:03;;;;;;;1.33;0.53;;;3.60;96.50;;;;;;6255429;22;20229;-82
2022/01/09 06:50:30;;;;;;;0.50;0.50;;;3.60;96.40;;;;;;6252667;22;20219;-83
2022/01/09 06:52:58;;;;;;;0.47;0.47;;;3.50;96.60;;;;;;6257202;22;20173;-83
2022/01/09 06:55:27;;;;;;;0.47;0.47;;;3.50;96.50;;;;;;6248182;22;20276;-83
2022/01/09 06:57:55;;;;;;;0.50;0.50;;;3.60;96.30;;;;;;6248662;22;20220;-83
2022/01/09 07:00:23;;;;;;;0.70;0.70;;;3.50;96.40;;;;;;6245933;22;20703;-83
2022/01/09 07:02:50;;;;;;;0.70;0.60;;;3.60;96.60;;;;;;6247379;22;20165;-83
2022/01/09 07:05:18;;;;;;;0.60;0.40;;;3.60;96.40;;;;;;6246805;22;20268;-83
2022/01/09 07:07:45;;;;;;;0.60;0.60;;;3.60;96.30;;;;;;6248240;22;20176;-84
2022/01/09 07:10:13;;;;;;;0.83;0.80;;;3.80;96.00;;;;;;6248004;22;20280;-83
2022/01/09 07:12:42;;;;;;;0.60;0.60;;;3.70;96.40;;;;;;6248941;22;20169;-83
2022/01/09 07:15:10;;;;;;;0.90;0.70;;;3.80;96.10;;;;;;6248689;22;20541;-84
2022/01/09 07:17:36;;;;;;;0.90;0.67;;;3.70;95.80;;;;;;6249016;22;20193;-83
2022/01/09 07:20:04;;;;;;;0.70;0.70;;;3.70;95.90;;;;;;6248459;22;20200;-82
2022/01/09 07:22:31;;;;;;;0.60;0.60;;;3.70;95.70;;;;;;6248972;22;20225;-84
2022/01/09 07:24:59;;;;;;;0.60;0.60;;;3.70;95.70;;;;;;6247519;22;20192;-82
2022/01/09 07:27:25;;;;;;;0.50;0.50;;;3.70;95.90;;;;;;6248431;22;20169;-83
2022/01/09 07:29:54;;;;;;;1.10;0.60;;;3.70;96.20;;;;;;6248257;22;20200;-83
2022/01/09 07:32:21;;;;;;;0.60;0.60;;;3.70;96.40;;;;;;6249298;22;20229;-84
2022/01/09 07:34:48;;;;;;;0.50;0.50;;;3.60;96.50;;;;;;6248028;22;20201;-83
2022/01/09 07:37:15;;;;;;;0.80;0.80;;;3.60;96.50;;;;;;6250548;22;20183;-82
2022/01/09 07:39:42;;;;;;;0.50;0.50;;;3.50;97.20;;;;;;6248220;22;20193;-82
2022/01/09 07:42:09;;;;;;;0.50;0.50;;;3.50;97.40;;;;;;6248532;22;20171;-82
2022/01/09 07:44:36;;;;;;;1.77;0.50;;;3.40;97.30;;;;;;6248098;22;20189;-83
2022/01/09 07:47:05;;;;;;;0.87;0.57;;;3.30;97.40;;;;;;6247629;22;20173;-82
2022/01/09 07:49:32;;;;;;;2.27;0.60;;;3.40;97.70;;;;;;6246968;22;20201;-83
2022/01/09 07:51:59;;;;;;;0.60;0.60;;;3.20;97.70;;;;;;6247025;22;20219;-84
2022/01/09 07:54:25;;;;;;;1.00;1.00;;;3.20;98.10;;;;;;6247914;22;20613;-83
2022/01/09 07:56:52;;;;;;;0.60;0.60;;;3.20;98.00;;;;;;6249174;22;20228;-82
2022/01/09 07:59:19;;;;;;;0.60;0.60;;;3.10;98.40;;;;;;6249383;22;20191;-83
2022/01/09 08:01:46;;;;;;;0.70;0.70;;;3.10;98.20;;;;;;6251785;22;20169;-82
2022/01/09 08:04:15;;;;;;;1.87;0.70;;;3.10;98.20;;;;;;6250608;22;20196;-83
2022/01/09 08:06:43;;;;;;;0.70;0.70;;;3.20;98.50;;;;;;6249018;22;20220;-83
2022/01/09 08:09:09;;;;;;;0.93;0.70;;;3.10;98.40;;;;;;6247240;22;20173;-83
2022/01/09 08:11:37;;;;;;;0.60;0.60;;;2.90;98.80;;;;;;6249733;22;20631;-83
2022/01/09 08:14:04;;;;;;;0.47;0.47;;;3.00;99.10;;;;;;6252195;22;20331;-84
2022/01/09 08:16:31;;;;;;;0.70;0.70;;;3.00;99.20;;;;;;6253534;22;20256;-82
2022/01/09 08:18:58;;;;;;;0.60;0.60;;;3.10;98.90;;;;;;6253472;22;20189;-82
2022/01/09 08:21:29;;;;;;;0.50;0.50;;;3.10;98.90;;;;;;6257877;22;20284;-82
2022/01/09 08:23:56;;;;;;;0.63;0.63;;;3.00;98.80;;;;;;6254133;22;20188;-84
2022/01/09 08:26:23;;;;;;;0.60;0.60;;;3.00;99.20;;;;;;6245514;22;20201;-84
2022/01/09 08:28:50;;;;;;;0.60;0.60;;;3.00;99.00;;;;;;6247269;22;20177;-84
2022/01/09 08:31:18;;;;;;;0.67;0.67;;;3.10;99.10;;;;;;6244809;22;20253;-84
2022/01/09 08:33:46;;;;;;;1.10;1.00;;;3.10;98.90;;;;;;6245136;22;20256;-84
2022/01/09 08:36:13;;;;;;;0.73;0.73;;;3.20;98.80;;;;;;6244444;22;20263;-83
2022/01/09 08:38:42;;;;;;;0.70;0.70;;;3.20;98.60;;;;;;6249894;22;20252;-84
2022/01/09 08:41:09;;;;;;;0.60;0.60;;;3.20;98.50;;;;;;6244649;22;20585;-85
2022/01/09 08:43:37;;;;;;;1.13;1.03;;;3.30;98.40;;;;;;6247243;22;20560;-82
2022/01/09 08:46:04;;;;;;;0.57;0.57;;;3.40;98.30;;;;;;6244405;22;20193;-83
2022/01/09 08:48:31;;;;;;;0.67;0.67;;;3.30;98.20;;;;;;6246230;22;20248;-82
2022/01/09 08:50:58;;;;;;;0.60;0.60;;;3.40;98.30;;;;;;6245511;22;20207;-82
2022/01/09 08:53:25;;;;;;;0.70;0.70;;;3.50;98.30;;;;;;6247246;22;20256;-82
2022/01/09 08:55:53;;;;;;;0.97;0.97;;;3.50;97.80;;;;;;6247201;22;20201;-82
2022/01/09 08:58:21;;;;;;;1.60;0.80;;;3.60;97.60;;;;;;6246127;22;20165;-82
2022/01/09 09:00:50;;;;;;;0.90;0.90;;;3.60;97.40;;;;;;6251060;22;20253;-83
2022/01/09 09:03:18;;;;;;;1.00;0.90;;;3.60;97.40;;;;;;6249370;22;20169;-82
2022/01/09 09:05:45;;;;;;;0.80;0.73;;;3.70;97.70;;;;;;6251059;22;20587;-83
2022/01/09 09:08:12;;;;;;;0.90;0.90;;;3.70;97.40;;;;;;6253486;22;20260;-82
2022/01/09 09:10:39;;;;;;;0.80;0.80;;;3.80;97.40;;;;;;6253032;22;20704;-84
2022/01/09 09:13:08;;;;;;;0.67;0.67;;;3.80;97.00;;;;;;6251051;22;20170;-83
2022/01/09 09:15:35;;;;;;;1.20;0.80;;;3.80;97.00;;;;;;6250343;22;20207;-85
2022/01/09 09:18:03;;;;;;;2.13;0.77;;;3.80;96.60;;;;;;6252251;22;20270;-82
2022/01/09 09:20:30;;;;;;;0.60;0.60;;;3.90;96.50;;;;;;6246257;22;20656;-82
2022/01/09 09:22:57;;;;;;;0.97;0.87;;;3.80;96.40;;;;;;6247429;22;20617;-82
2022/01/09 09:25:24;;;;;;;1.10;1.00;;;3.80;96.20;;;;;;6247559;22;20482;-81
2022/01/09 09:27:51;;;;;;;0.90;0.90;;;3.80;96.30;;;;;;6248732;22;20492;-83
2022/01/09 09:30:20;;;;;;;0.80;0.80;;;3.80;96.50;;;;;;6249043;22;20283;-81
2022/01/09 09:32:47;;;;;;;0.60;0.60;;;3.80;96.20;;;;;;6248647;22;20843;-84
2022/01/09 09:35:14;;;;;;;1.23;0.80;;;3.80;96.50;;;;;;6247493;22;20192;-83
2022/01/09 09:37:41;;;;;;;0.80;0.80;;;3.90;96.60;;;;;;6247095;22;20176;-82
2022/01/09 09:40:09;;;;;;;0.63;0.63;;;3.90;96.30;;;;;;6246509;22;20197;-85
2022/01/09 09:42:37;;;;;;;0.67;0.67;;;4.00;96.20;;;;;;6250106;22;20173;-85
2022/01/09 09:45:06;;;;;;;0.80;0.73;;;3.90;95.70;;;;;;6250942;22;20197;-82
2022/01/09 09:47:36;;;;;;;1.33;0.80;;;3.90;96.00;;;;;;6251189;22;20161;-82
2022/01/09 09:50:05;;;;;;;0.70;0.70;;;3.80;96.10;;;;;;6249432;22;20255;-83
2022/01/09 09:52:32;;;;;;;1.17;0.77;;;4.00;95.40;;;;;;6246689;22;20511;-82
2022/01/09 09:55:00;;;;;;;2.47;0.80;;;3.90;95.60;;;;;;6248226;22;20208;-84
2022/01/09 09:57:27;;;;;;;0.80;0.80;;;3.90;95.70;;;;;;6248375;22;20623;-82
2022/01/09 10:00:01;;;;;;;1.53;0.73;;;4.00;96.10;;;;;;6245522;22;20687;-84
2022/01/09 10:02:43;;;;;;;1.00;0.90;;;4.10;95.20;;;;;;6249882;22;20551;-82
2022/01/09 10:05:11;;;;;;;1.27;1.00;;;4.30;94.90;;;;;;6248611;22;20279;-83
2022/01/09 10:07:38;;;;;;;1.03;0.93;;;4.30;94.90;;;;;;6251843;22;20169;-84
2022/01/09 10:10:09;;;;;;;2.80;0.97;;;4.40;94.90;;;;;;6249271;23;20203;-88
2022/01/09 10:12:37;;;;;;;0.80;0.80;;;4.30;94.90;;;;;;6251989;22;20169;-83
2022/01/09 10:15:07;;;;;;;1.60;1.20;;;4.20;95.20;;;;;;6250041;22;20204;-84
2022/01/09 10:17:35;;;;;;;0.80;0.80;;;4.20;95.70;;;;;;6250461;22;20201;-86
2022/01/09 10:20:10;;;;;;;1.57;1.10;;;4.10;96.00;;;;;;6250941;22;20276;-84
2022/01/09 10:22:40;;;;;;;0.93;0.93;;;4.10;96.00;;;;;;6253773;22;20221;-85
2022/01/09 10:25:37;;;;;;;2.13;0.80;;;4.10;96.00;;;;;;6251164;22;20228;-84
2022/01/09 10:28:08;;;;;;;1.43;0.90;;;4.20;96.10;;;;;;6250637;22;20261;-84
2022/01/09 10:30:38;;;;;;;0.87;0.73;;;4.30;96.00;;;;;;6252049;22;20205;-84
2022/01/09 10:33:09;;;;;;;0.77;0.77;;;4.30;95.20;;;;;;6253246;22;20161;-82
2022/01/09 10:35:39;;;;;;;1.03;0.93;;;4.20;95.40;;;;;;6251946;22;20201;-82
2022/01/09 10:38:17;;;;;;;1.50;1.00;;;4.20;95.40;;;;;;6252528;22;20213;-83
2022/01/09 10:40:46;;;;;;;1.33;0.90;;;4.20;95.60;;;;;;6251469;22;20495;-81
2022/01/09 10:43:16;;;;;;;1.63;1.10;;;4.30;95.10;;;;;;6253665;22;20503;-82
2022/01/09 10:45:46;;;;;;;0.93;0.83;;;4.30;95.00;;;;;;6254370;22;20201;-81
2022/01/09 10:48:17;;;;;;;0.97;0.90;;;4.40;94.90;;;;;;6256363;22;20700;-83
2022/01/09 10:50:47;;;;;;;1.40;1.03;;;4.40;95.00;;;;;;6253723;22;20280;-82
2022/01/09 10:53:23;;;;;;;1.50;1.40;;;4.50;94.60;;;;;;6248726;22;20180;-83
2022/01/09 10:56:03;;;;;;;1.50;1.30;;;4.60;94.00;;;;;;6247581;22;20201;-82
2022/01/09 10:58:31;;;;;;;1.63;1.10;;;4.80;93.50;;;;;;6249152;22;20161;-84
2022/01/09 11:01:16;;;;;;;1.07;0.83;;;5.00;93.20;;;;;;6247678;22;20753;-84
2022/01/09 11:03:45;;;;;;;2.30;1.30;;;5.10;92.40;;;;;;6209899;22;20285;-82
2022/01/09 11:06:13;;;;;;;1.97;1.00;;;5.30;91.00;;;;;;6232226;23;20666;-82
2022/01/09 11:08:41;;;;;;;2.60;0.90;;;5.20;91.30;;;;;;6252109;22;20192;-84
2022/01/09 11:11:18;;;;;;;1.90;0.97;;;5.10;90.90;;;;;;6252075;22;20675;-84
2022/01/09 11:13:47;;;;;;;1.37;1.10;;;5.10;90.90;;;;;;6253709;22;20192;-85
2022/01/09 11:19:01;;;;;;;4.33;1.20;;;5.30;90.00;;;;;;6249619;22;20180;-84
2022/01/09 11:21:30;;;;;;;3.23;0.90;;;5.30;89.80;;;;;;6251804;22;20170;-84
2022/01/09 11:24:08;;;;;;;2.67;1.33;;;5.30;89.10;;;;;;6251389;22;20492;-86
2022/01/09 11:26:45;;;;;;;2.50;0.90;;;5.20;89.10;;;;;;6250257;22;20160;-84
2022/01/09 11:30:00;;;;;;;2.57;1.23;;;5.40;89.20;;;;;;6249528;22;20193;-87
2022/01/09 11:32:53;;;;;;;1.87;0.80;;;5.40;85.80;;;;;;6247744;23;20232;-88
2022/01/09 11:38:26;;;;;;;2.80;1.23;;;5.00;85.70;;;;;;6249065;23;20235;-89
2022/01/09 11:40:54;;;;;;;1.10;1.00;;;5.10;86.70;;;;;;6248299;22;20275;-86
2022/01/09 11:43:21;;;;;;;2.23;1.00;;;5.00;87.90;;;;;;6252746;22;20189;-86
2022/01/09 11:45:52;;;;;;;2.87;1.00;;;5.00;86.80;;;;;;6247249;22;20229;-87
2022/01/09 11:48:44;;;;;;;3.03;1.20;;;4.90;88.90;;;;;;6253762;22;20531;-88
2022/01/09 11:51:13;;;;;;;1.20;0.83;;;5.10;87.40;;;;;;6251773;22;20648;-87
2022/01/09 11:57:18;;;;;;;3.47;1.20;;;5.20;84.60;;;;;;6255962;22;20157;-84
2022/01/09 12:00:01;;;;;;;2.87;1.10;;;5.40;85.40;;;;;;6252567;22;20219;-84
2022/01/09 12:02:38;;;;;;;2.30;1.20;;;5.40;82.30;;;;;;6253695;22;20248;-87
2022/01/09 12:05:09;;;;;;;3.33;1.20;;;5.70;82.80;;;;;;6249852;22;20164;-89
2022/01/09 12:11:46;;;;;;;2.47;1.00;;;5.80;81.80;;;;;;6192674;23;20177;-86
2022/01/09 12:15:02;;;;;;;3.03;0.90;;;5.70;78.70;;;;;;6189769;23;20536;-88
2022/01/09 12:17:42;;;;;;;2.00;1.10;;;5.50;79.00;;;;;;6236810;22;20632;-90
2022/01/09 12:20:12;;;;;;;2.80;1.10;;;5.40;80.60;;;;;;6221209;22;20212;-89
2022/01/09 12:23:01;;;;;;;5.27;1.37;;;5.30;80.20;;;;;;6248070;22;20169;-90
2022/01/09 12:25:57;;;;;;;2.00;1.03;;;5.10;80.60;;;;;;6245547;22;20158;-89
2022/01/09 12:28:44;;;;;;;2.37;1.10;;;5.10;80.00;;;;;;6243600;23;20532;-89
2022/01/09 12:31:28;;;;;;;4.60;1.60;;;5.10;78.20;;;;;;6245773;22;20259;-88
2022/01/09 12:33:58;;;;;;;2.87;1.30;;;4.90;81.60;;;;;;6245203;23;20216;-89
2022/01/09 12:36:31;;;;;;;3.47;1.40;;;5.00;80.40;;;;;;6248358;23;20153;-84
2022/01/09 12:39:03;;;;;;;2.03;1.20;;;4.90;83.10;;;;;;6250607;23;20240;-81
2022/01/09 12:41:32;;;;;;;3.73;1.47;;;5.00;81.20;;;;;;6249704;22;20197;-81
2022/01/09 12:44:08;;;;;;;5.13;1.53;;;5.10;79.50;;;;;;6250917;23;20170;-81
2022/01/09 12:46:41;;;;;;;3.87;1.30;;;5.20;79.40;;;;;;6249086;22;20257;-82
2022/01/09 12:49:12;;;;;;;3.77;1.33;;;5.30;78.70;;;;;;6249831;23;20195;-81
2022/01/09 12:51:47;;;;;;;2.13;1.23;;;5.40;79.20;;;;;;6248253;22;20197;-82
2022/01/09 12:54:14;;;;;;;2.83;1.50;;;5.70;78.30;;;;;;6249450;23;20465;-85
2022/01/09 12:56:42;;;;;;;2.03;1.27;;;5.70;77.50;;;;;;6250263;22;20284;-81
2022/01/09 12:59:11;;;;;;;2.53;1.17;;;5.90;75.80;;;;;;6248646;23;20173;-85
2022/01/09 13:01:43;;;;;;;3.77;1.37;;;5.70;75.70;;;;;;6248227;22;20228;-85
2022/01/09 13:04:14;;;;;;;4.07;2.23;;;5.50;76.90;;;;;;6249036;23;20183;-88
2022/01/09 13:06:42;;;;;;;6.50;2.40;;;5.40;78.10;;;;;;6222593;23;20197;-83
2022/01/09 13:09:15;;;;;;;3.80;1.43;;;5.40;77.70;;;;;;6251927;23;20260;-81
2022/01/09 13:11:42;;;;;;;4.27;2.17;;;5.30;78.70;;;;;;6249414;23;20280;-85
2022/01/09 13:14:10;;;;;;;2.90;2.00;;;5.50;78.30;;;;;;6248089;23;20240;-83
2022/01/09 13:16:37;;;;;;;3.10;1.50;;;5.60;78.00;;;;;;6254127;22;20228;-82
2022/01/09 13:19:07;;;;;;;7.57;4.30;;;5.50;76.30;;;;;;6258698;23;20181;-81
2022/01/09 13:21:35;;;;;;;4.17;1.77;;;5.60;75.20;;;;;;6254678;23;20216;-83